sensor_id;sensor_type;location;lat;lon;timestamp;P1;durP1;ratioP1;P2;durP2;ratioP2
68989;SDS011;56046;47.270;11.368;2023-02-28T00:02:13;10.17;;;4.83;;
68989;SDS011;56046;47.270;11.368;2023-02-28T00:04:39;11.07;;;5.10;;
68989;SDS011;56046;47.270;11.368;2023-02-28T00:07:04;8.70;;;4.80;;
68989;SDS011;56046;47.270;11.368;2023-02-28T00:09:29;11.57;;;5.23;;
68989;SDS011;56046;47.270;11.368;2023-02-28T00:11:55;10.40;;;4.77;;
68989;SDS011;56046;47.270;11.368;2023-02-28T00:14:20;10.00;;;4.33;;
68989;SDS011;56046;47.270;11.368;2023-02-28T00:16:45;10.73;;;4.67;;
68989;SDS011;56046;47.270;11.368;2023-02-28T00:19:10;10.57;;;4.43;;
68989;SDS011;56046;47.270;11.368;2023-02-28T00:21:38;7.93;;;4.20;;
68989;SDS011;56046;47.270;11.368;2023-02-28T00:24:05;9.75;;;4.70;;
68989;SDS011;56046;47.270;11.368;2023-02-28T00:26:31;11.10;;;4.90;;
68989;SDS011;56046;47.270;11.368;2023-02-28T00:28:56;8.80;;;4.20;;
68989;SDS011;56046;47.270;11.368;2023-02-28T00:31:21;10.80;;;5.50;;
68989;SDS011;56046;47.270;11.368;2023-02-28T00:33:47;13.10;;;4.27;;
68989;SDS011;56046;47.270;11.368;2023-02-28T00:36:12;11.93;;;4.87;;
68989;SDS011;56046;47.270;11.368;2023-02-28T00:38:38;12.83;;;5.40;;
68989;SDS011;56046;47.270;11.368;2023-02-28T00:41:03;9.32;;;4.78;;
68989;SDS011;56046;47.270;11.368;2023-02-28T00:43:29;10.57;;;4.68;;
68989;SDS011;56046;47.270;11.368;2023-02-28T00:45:55;9.70;;;4.43;;
68989;SDS011;56046;47.270;11.368;2023-02-28T00:48:20;10.37;;;4.93;;
68989;SDS011;56046;47.270;11.368;2023-02-28T00:50:48;9.43;;;4.72;;
68989;SDS011;56046;47.270;11.368;2023-02-28T00:53:13;11.60;;;5.00;;
68989;SDS011;56046;47.270;11.368;2023-02-28T00:55:38;11.20;;;5.80;;
68989;SDS011;56046;47.270;11.368;2023-02-28T00:58:03;13.40;;;6.20;;
68989;SDS011;56046;47.270;11.368;2023-02-28T01:00:29;10.07;;;5.00;;
68989;SDS011;56046;47.270;11.368;2023-02-28T01:02:54;14.60;;;5.60;;
68989;SDS011;56046;47.270;11.368;2023-02-28T01:05:19;10.47;;;4.80;;
68989;SDS011;56046;47.270;11.368;2023-02-28T01:07:44;12.63;;;4.93;;
68989;SDS011;56046;47.270;11.368;2023-02-28T01:10:10;12.00;;;5.70;;
68989;SDS011;56046;47.270;11.368;2023-02-28T01:12:35;10.82;;;4.50;;
68989;SDS011;56046;47.270;11.368;2023-02-28T01:15:01;11.23;;;5.03;;
68989;SDS011;56046;47.270;11.368;2023-02-28T01:17:26;12.47;;;5.13;;
68989;SDS011;56046;47.270;11.368;2023-02-28T01:19:52;10.40;;;4.97;;
68989;SDS011;56046;47.270;11.368;2023-02-28T01:22:18;11.57;;;4.85;;
68989;SDS011;56046;47.270;11.368;2023-02-28T01:24:43;10.43;;;5.07;;
68989;SDS011;56046;47.270;11.368;2023-02-28T01:27:08;9.27;;;4.53;;
68989;SDS011;56046;47.270;11.368;2023-02-28T01:29:34;14.37;;;5.83;;
68989;SDS011;56046;47.270;11.368;2023-02-28T01:31:59;11.30;;;5.00;;
68989;SDS011;56046;47.270;11.368;2023-02-28T01:34:24;9.63;;;4.33;;
68989;SDS011;56046;47.270;11.368;2023-02-28T01:36:49;10.80;;;4.90;;
68989;SDS011;56046;47.270;11.368;2023-02-28T01:39:15;9.97;;;4.97;;
68989;SDS011;56046;47.270;11.368;2023-02-28T01:41:40;13.07;;;5.20;;
68989;SDS011;56046;47.270;11.368;2023-02-28T01:46:49;9.60;;;4.28;;
68989;SDS011;56046;47.270;11.368;2023-02-28T01:49:15;14.03;;;5.97;;
68989;SDS011;56046;47.270;11.368;2023-02-28T01:51:43;9.57;;;4.87;;
68989;SDS011;56046;47.270;11.368;2023-02-28T01:54:33;11.07;;;4.82;;
68989;SDS011;56046;47.270;11.368;2023-02-28T01:59:35;13.77;;;5.60;;
68989;SDS011;56046;47.270;11.368;2023-02-28T02:02:02;11.82;;;5.68;;
68989;SDS011;56046;47.270;11.368;2023-02-28T02:04:32;11.80;;;5.20;;
68989;SDS011;56046;47.270;11.368;2023-02-28T02:06:59;9.20;;;4.28;;
68989;SDS011;56046;47.270;11.368;2023-02-28T02:09:24;9.97;;;4.50;;
68989;SDS011;56046;47.270;11.368;2023-02-28T02:11:50;10.83;;;5.60;;
68989;SDS011;56046;47.270;11.368;2023-02-28T02:22:11;10.30;;;4.57;;
68989;SDS011;56046;47.270;11.368;2023-02-28T02:40:27;12.97;;;5.43;;
68989;SDS011;56046;47.270;11.368;2023-02-28T02:42:55;12.93;;;5.55;;
68989;SDS011;56046;47.270;11.368;2023-02-28T02:45:26;10.38;;;5.03;;
68989;SDS011;56046;47.270;11.368;2023-02-28T02:47:53;12.63;;;4.97;;
68989;SDS011;56046;47.270;11.368;2023-02-28T02:50:20;8.33;;;3.47;;
68989;SDS011;56046;47.270;11.368;2023-02-28T02:52:48;10.65;;;4.68;;
68989;SDS011;56046;47.270;11.368;2023-02-28T02:55:16;12.52;;;4.85;;
68989;SDS011;56046;47.270;11.368;2023-02-28T03:00:07;10.13;;;4.85;;
68989;SDS011;56046;47.270;11.368;2023-02-28T03:02:34;15.35;;;5.22;;
68989;SDS011;56046;47.270;11.368;2023-02-28T03:05:01;12.75;;;4.60;;
68989;SDS011;56046;47.270;11.368;2023-02-28T03:07:27;9.63;;;4.65;;
68989;SDS011;56046;47.270;11.368;2023-02-28T03:09:53;11.00;;;4.27;;
68989;SDS011;56046;47.270;11.368;2023-02-28T03:12:19;13.43;;;4.93;;
68989;SDS011;56046;47.270;11.368;2023-02-28T03:14:54;10.93;;;5.23;;
68989;SDS011;56046;47.270;11.368;2023-02-28T03:17:27;10.38;;;4.47;;
68989;SDS011;56046;47.270;11.368;2023-02-28T03:33:10;14.48;;;5.93;;
68989;SDS011;56046;47.270;11.368;2023-02-28T03:35:52;10.25;;;5.10;;
68989;SDS011;56046;47.270;11.368;2023-02-28T03:40:51;11.13;;;4.20;;
68989;SDS011;56046;47.270;11.368;2023-02-28T03:43:20;13.40;;;4.90;;
68989;SDS011;56046;47.270;11.368;2023-02-28T03:45:47;12.07;;;4.10;;
68989;SDS011;56046;47.270;11.368;2023-02-28T03:48:16;11.52;;;4.70;;
68989;SDS011;56046;47.270;11.368;2023-02-28T03:50:44;12.90;;;5.22;;
68989;SDS011;56046;47.270;11.368;2023-02-28T03:55:37;12.50;;;4.87;;
68989;SDS011;56046;47.270;11.368;2023-02-28T04:00:43;11.07;;;4.37;;
68989;SDS011;56046;47.270;11.368;2023-02-28T04:03:10;10.90;;;4.28;;
68989;SDS011;56046;47.270;11.368;2023-02-28T04:05:44;11.07;;;3.93;;
68989;SDS011;56046;47.270;11.368;2023-02-28T04:08:11;11.38;;;4.60;;
68989;SDS011;56046;47.270;11.368;2023-02-28T04:10:36;11.53;;;4.73;;
68989;SDS011;56046;47.270;11.368;2023-02-28T04:13:02;11.43;;;5.30;;
68989;SDS011;56046;47.270;11.368;2023-02-28T04:15:27;13.00;;;5.40;;
68989;SDS011;56046;47.270;11.368;2023-02-28T04:17:53;11.13;;;5.00;;
68989;SDS011;56046;47.270;11.368;2023-02-28T04:20:18;9.80;;;4.60;;
68989;SDS011;56046;47.270;11.368;2023-02-28T04:22:43;12.87;;;5.40;;
68989;SDS011;56046;47.270;11.368;2023-02-28T04:25:09;10.63;;;5.13;;
68989;SDS011;56046;47.270;11.368;2023-02-28T04:27:34;12.57;;;5.43;;
68989;SDS011;56046;47.270;11.368;2023-02-28T04:30:00;12.77;;;4.33;;
68989;SDS011;56046;47.270;11.368;2023-02-28T04:32:25;12.37;;;5.40;;
68989;SDS011;56046;47.270;11.368;2023-02-28T04:34:50;12.50;;;5.75;;
68989;SDS011;56046;47.270;11.368;2023-02-28T04:37:16;11.97;;;5.33;;
68989;SDS011;56046;47.270;11.368;2023-02-28T04:39:41;12.17;;;5.23;;
68989;SDS011;56046;47.270;11.368;2023-02-28T04:42:07;13.70;;;4.70;;
68989;SDS011;56046;47.270;11.368;2023-02-28T04:44:32;12.57;;;4.97;;
68989;SDS011;56046;47.270;11.368;2023-02-28T04:46:58;12.60;;;4.70;;
68989;SDS011;56046;47.270;11.368;2023-02-28T04:49:23;14.23;;;4.80;;
68989;SDS011;56046;47.270;11.368;2023-02-28T04:51:48;13.03;;;5.53;;
68989;SDS011;56046;47.270;11.368;2023-02-28T04:54:14;12.02;;;5.63;;
68989;SDS011;56046;47.270;11.368;2023-02-28T04:56:41;11.97;;;4.60;;
68989;SDS011;56046;47.270;11.368;2023-02-28T04:59:06;14.73;;;5.37;;
68989;SDS011;56046;47.270;11.368;2023-02-28T05:01:32;9.77;;;4.68;;
68989;SDS011;56046;47.270;11.368;2023-02-28T05:03:58;12.75;;;4.78;;
68989;SDS011;56046;47.270;11.368;2023-02-28T05:06:24;10.25;;;4.15;;
68989;SDS011;56046;47.270;11.368;2023-02-28T05:08:50;12.88;;;5.03;;
68989;SDS011;56046;47.270;11.368;2023-02-28T05:11:17;12.60;;;4.93;;
68989;SDS011;56046;47.270;11.368;2023-02-28T05:13:43;11.38;;;4.50;;
68989;SDS011;56046;47.270;11.368;2023-02-28T05:16:08;10.02;;;5.07;;
68989;SDS011;56046;47.270;11.368;2023-02-28T05:18:37;12.90;;;5.13;;
68989;SDS011;56046;47.270;11.368;2023-02-28T05:21:02;11.48;;;4.85;;
68989;SDS011;56046;47.270;11.368;2023-02-28T05:23:28;12.07;;;4.90;;
68989;SDS011;56046;47.270;11.368;2023-02-28T05:25:53;9.87;;;4.80;;
68989;SDS011;56046;47.270;11.368;2023-02-28T05:28:19;10.37;;;4.67;;
68989;SDS011;56046;47.270;11.368;2023-02-28T05:30:44;12.23;;;4.85;;
68989;SDS011;56046;47.270;11.368;2023-02-28T05:33:10;14.03;;;5.50;;
68989;SDS011;56046;47.270;11.368;2023-02-28T05:35:37;12.10;;;4.53;;
68989;SDS011;56046;47.270;11.368;2023-02-28T05:38:03;12.52;;;5.13;;
68989;SDS011;56046;47.270;11.368;2023-02-28T05:40:28;13.73;;;5.30;;
68989;SDS011;56046;47.270;11.368;2023-02-28T05:42:53;12.83;;;5.27;;
68989;SDS011;56046;47.270;11.368;2023-02-28T05:45:19;14.30;;;5.60;;
68989;SDS011;56046;47.270;11.368;2023-02-28T05:47:44;15.60;;;5.07;;
68989;SDS011;56046;47.270;11.368;2023-02-28T05:50:09;10.90;;;4.67;;
68989;SDS011;56046;47.270;11.368;2023-02-28T05:52:35;11.75;;;4.93;;
68989;SDS011;56046;47.270;11.368;2023-02-28T05:55:01;11.07;;;4.97;;
68989;SDS011;56046;47.270;11.368;2023-02-28T05:57:26;11.03;;;5.13;;
68989;SDS011;56046;47.270;11.368;2023-02-28T05:59:51;13.23;;;5.10;;
68989;SDS011;56046;47.270;11.368;2023-02-28T06:02:17;15.70;;;5.27;;
68989;SDS011;56046;47.270;11.368;2023-02-28T06:04:42;12.80;;;5.78;;
68989;SDS011;56046;47.270;11.368;2023-02-28T06:07:08;9.63;;;4.40;;
68989;SDS011;56046;47.270;11.368;2023-02-28T06:09:34;10.73;;;4.88;;
68989;SDS011;56046;47.270;11.368;2023-02-28T06:11:59;11.73;;;5.27;;
68989;SDS011;56046;47.270;11.368;2023-02-28T06:14:25;12.40;;;5.45;;
68989;SDS011;56046;47.270;11.368;2023-02-28T06:16:50;12.65;;;5.35;;
68989;SDS011;56046;47.270;11.368;2023-02-28T06:19:16;11.63;;;4.50;;
68989;SDS011;56046;47.270;11.368;2023-02-28T06:21:42;13.73;;;5.38;;
68989;SDS011;56046;47.270;11.368;2023-02-28T06:24:07;9.00;;;4.10;;
68989;SDS011;56046;47.270;11.368;2023-02-28T06:26:32;11.57;;;4.57;;
68989;SDS011;56046;47.270;11.368;2023-02-28T06:28:58;10.83;;;4.63;;
68989;SDS011;56046;47.270;11.368;2023-02-28T06:31:23;11.67;;;5.13;;
68989;SDS011;56046;47.270;11.368;2023-02-28T06:33:50;12.35;;;5.45;;
68989;SDS011;56046;47.270;11.368;2023-02-28T06:36:16;11.17;;;4.77;;
68989;SDS011;56046;47.270;11.368;2023-02-28T06:38:41;12.57;;;5.10;;
68989;SDS011;56046;47.270;11.368;2023-02-28T06:41:07;9.77;;;4.70;;
68989;SDS011;56046;47.270;11.368;2023-02-28T06:43:34;11.73;;;4.50;;
68989;SDS011;56046;47.270;11.368;2023-02-28T06:46:00;11.20;;;4.60;;
68989;SDS011;56046;47.270;11.368;2023-02-28T06:48:26;10.88;;;4.90;;
68989;SDS011;56046;47.270;11.368;2023-02-28T06:50:51;11.57;;;5.20;;
68989;SDS011;56046;47.270;11.368;2023-02-28T06:53:17;13.63;;;6.55;;
68989;SDS011;56046;47.270;11.368;2023-02-28T06:55:42;17.03;;;6.23;;
68989;SDS011;56046;47.270;11.368;2023-02-28T06:58:07;17.60;;;6.90;;
68989;SDS011;56046;47.270;11.368;2023-02-28T07:00:40;14.37;;;5.73;;
68989;SDS011;56046;47.270;11.368;2023-02-28T07:03:05;15.15;;;5.90;;
68989;SDS011;56046;47.270;11.368;2023-02-28T07:05:31;13.03;;;4.93;;
68989;SDS011;56046;47.270;11.368;2023-02-28T07:07:56;11.90;;;5.33;;
68989;SDS011;56046;47.270;11.368;2023-02-28T07:10:22;13.27;;;5.05;;
68989;SDS011;56046;47.270;11.368;2023-02-28T07:12:47;12.13;;;5.20;;
68989;SDS011;56046;47.270;11.368;2023-02-28T07:15:12;11.50;;;5.10;;
68989;SDS011;56046;47.270;11.368;2023-02-28T07:17:37;13.57;;;5.83;;
68989;SDS011;56046;47.270;11.368;2023-02-28T07:20:03;11.23;;;5.30;;
68989;SDS011;56046;47.270;11.368;2023-02-28T07:22:29;10.95;;;5.10;;
68989;SDS011;56046;47.270;11.368;2023-02-28T07:24:54;13.67;;;6.43;;
68989;SDS011;56046;47.270;11.368;2023-02-28T07:27:20;12.40;;;5.77;;
68989;SDS011;56046;47.270;11.368;2023-02-28T07:29:50;11.50;;;5.53;;
68989;SDS011;56046;47.270;11.368;2023-02-28T07:32:15;10.77;;;4.93;;
68989;SDS011;56046;47.270;11.368;2023-02-28T07:34:41;9.60;;;4.90;;
68989;SDS011;56046;47.270;11.368;2023-02-28T07:37:06;14.77;;;5.70;;
68989;SDS011;56046;47.270;11.368;2023-02-28T07:39:31;12.17;;;5.27;;
68989;SDS011;56046;47.270;11.368;2023-02-28T07:41:56;12.03;;;4.67;;
68989;SDS011;56046;47.270;11.368;2023-02-28T07:44:22;10.40;;;4.57;;
68989;SDS011;56046;47.270;11.368;2023-02-28T07:46:47;10.87;;;5.60;;
68989;SDS011;56046;47.270;11.368;2023-02-28T07:49:12;9.47;;;4.90;;
68989;SDS011;56046;47.270;11.368;2023-02-28T07:51:38;10.57;;;5.40;;
68989;SDS011;56046;47.270;11.368;2023-02-28T07:54:03;11.63;;;5.37;;
68989;SDS011;56046;47.270;11.368;2023-02-28T07:56:28;10.15;;;4.82;;
68989;SDS011;56046;47.270;11.368;2023-02-28T07:58:54;11.00;;;5.37;;
68989;SDS011;56046;47.270;11.368;2023-02-28T08:01:19;10.47;;;5.13;;
68989;SDS011;56046;47.270;11.368;2023-02-28T08:03:44;12.07;;;5.73;;
68989;SDS011;56046;47.270;11.368;2023-02-28T08:06:14;11.10;;;5.67;;
68989;SDS011;56046;47.270;11.368;2023-02-28T08:08:40;10.30;;;4.90;;
68989;SDS011;56046;47.270;11.368;2023-02-28T08:11:05;11.13;;;5.37;;
68989;SDS011;56046;47.270;11.368;2023-02-28T08:13:30;11.77;;;5.20;;
68989;SDS011;56046;47.270;11.368;2023-02-28T08:15:56;11.07;;;5.77;;
68989;SDS011;56046;47.270;11.368;2023-02-28T08:18:21;10.93;;;5.10;;
68989;SDS011;56046;47.270;11.368;2023-02-28T08:20:47;11.30;;;5.55;;
68989;SDS011;56046;47.270;11.368;2023-02-28T08:23:12;10.35;;;5.57;;
68989;SDS011;56046;47.270;11.368;2023-02-28T08:25:40;12.47;;;5.80;;
68989;SDS011;56046;47.270;11.368;2023-02-28T08:28:06;10.65;;;5.97;;
68989;SDS011;56046;47.270;11.368;2023-02-28T08:30:31;11.00;;;5.70;;
68989;SDS011;56046;47.270;11.368;2023-02-28T08:32:56;13.37;;;6.10;;
68989;SDS011;56046;47.270;11.368;2023-02-28T08:35:22;10.63;;;5.33;;
68989;SDS011;56046;47.270;11.368;2023-02-28T08:37:50;14.50;;;8.83;;
68989;SDS011;56046;47.270;11.368;2023-02-28T08:40:16;13.15;;;6.00;;
68989;SDS011;56046;47.270;11.368;2023-02-28T08:42:47;12.27;;;5.70;;
68989;SDS011;56046;47.270;11.368;2023-02-28T08:45:13;10.23;;;5.30;;
68989;SDS011;56046;47.270;11.368;2023-02-28T08:47:38;10.43;;;5.47;;
68989;SDS011;56046;47.270;11.368;2023-02-28T08:50:04;13.32;;;5.72;;
68989;SDS011;56046;47.270;11.368;2023-02-28T08:52:29;11.63;;;5.60;;
68989;SDS011;56046;47.270;11.368;2023-02-28T08:54:55;12.02;;;5.40;;
68989;SDS011;56046;47.270;11.368;2023-02-28T08:57:20;11.80;;;5.63;;
68989;SDS011;56046;47.270;11.368;2023-02-28T08:59:45;10.43;;;5.60;;
68989;SDS011;56046;47.270;11.368;2023-02-28T09:02:14;11.10;;;5.40;;
68989;SDS011;56046;47.270;11.368;2023-02-28T09:04:40;11.47;;;6.10;;
68989;SDS011;56046;47.270;11.368;2023-02-28T09:07:05;11.30;;;6.35;;
68989;SDS011;56046;47.270;11.368;2023-02-28T09:09:31;10.60;;;5.57;;
68989;SDS011;56046;47.270;11.368;2023-02-28T09:11:56;11.30;;;5.60;;
68989;SDS011;56046;47.270;11.368;2023-02-28T09:14:21;11.20;;;5.90;;
68989;SDS011;56046;47.270;11.368;2023-02-28T09:16:47;10.65;;;6.07;;
68989;SDS011;56046;47.270;11.368;2023-02-28T09:19:12;10.80;;;6.10;;
68989;SDS011;56046;47.270;11.368;2023-02-28T09:21:37;13.32;;;5.90;;
68989;SDS011;56046;47.270;11.368;2023-02-28T09:24:03;11.67;;;6.20;;
68989;SDS011;56046;47.270;11.368;2023-02-28T09:26:28;11.80;;;5.80;;
68989;SDS011;56046;47.270;11.368;2023-02-28T09:28:54;12.00;;;6.80;;
68989;SDS011;56046;47.270;11.368;2023-02-28T09:31:21;11.00;;;6.28;;
68989;SDS011;56046;47.270;11.368;2023-02-28T09:33:50;11.10;;;6.53;;
68989;SDS011;56046;47.270;11.368;2023-02-28T09:36:15;11.43;;;6.00;;
68989;SDS011;56046;47.270;11.368;2023-02-28T09:38:41;11.60;;;6.50;;
68989;SDS011;56046;47.270;11.368;2023-02-28T09:41:41;11.80;;;6.03;;
68989;SDS011;56046;47.270;11.368;2023-02-28T09:44:00;11.80;;;5.93;;
68989;SDS011;56046;47.270;11.368;2023-02-28T09:49:16;11.00;;;6.22;;
68989;SDS011;56046;47.270;11.368;2023-02-28T09:54:13;12.10;;;6.50;;
68989;SDS011;56046;47.270;11.368;2023-02-28T09:56:44;13.48;;;6.57;;
68989;SDS011;56046;47.270;11.368;2023-02-28T10:04:21;14.05;;;6.88;;
68989;SDS011;56046;47.270;11.368;2023-02-28T10:06:55;12.57;;;5.77;;
68989;SDS011;56046;47.270;11.368;2023-02-28T10:09:23;11.30;;;6.40;;
68989;SDS011;56046;47.270;11.368;2023-02-28T10:11:52;11.23;;;6.38;;
68989;SDS011;56046;47.270;11.368;2023-02-28T10:14:19;13.07;;;6.43;;
68989;SDS011;56046;47.270;11.368;2023-02-28T10:16:47;13.30;;;6.85;;
68989;SDS011;56046;47.270;11.368;2023-02-28T10:24:30;11.60;;;6.28;;
68989;SDS011;56046;47.270;11.368;2023-02-28T10:27:03;16.52;;;6.70;;
68989;SDS011;56046;47.270;11.368;2023-02-28T10:29:31;13.77;;;6.50;;
68989;SDS011;56046;47.270;11.368;2023-02-28T10:31:58;12.50;;;6.73;;
68989;SDS011;56046;47.270;11.368;2023-02-28T10:34:25;13.85;;;7.13;;
68989;SDS011;56046;47.270;11.368;2023-02-28T10:36:50;11.23;;;6.20;;
68989;SDS011;56046;47.270;11.368;2023-02-28T10:42:00;12.52;;;6.28;;
68989;SDS011;56046;47.270;11.368;2023-02-28T10:44:25;14.13;;;6.63;;
68989;SDS011;56046;47.270;11.368;2023-02-28T10:46:51;13.45;;;7.28;;
68989;SDS011;56046;47.270;11.368;2023-02-28T10:49:23;14.40;;;7.13;;
68989;SDS011;56046;47.270;11.368;2023-02-28T10:51:52;12.48;;;6.38;;
68989;SDS011;56046;47.270;11.368;2023-02-28T10:57:06;11.75;;;6.50;;
68989;SDS011;56046;47.270;11.368;2023-02-28T10:59:32;11.68;;;6.70;;
68989;SDS011;56046;47.270;11.368;2023-02-28T11:01:57;14.30;;;6.90;;
68989;SDS011;56046;47.270;11.368;2023-02-28T11:06:56;15.03;;;6.63;;
68989;SDS011;56046;47.270;11.368;2023-02-28T11:09:30;13.70;;;7.10;;
68989;SDS011;56046;47.270;11.368;2023-02-28T11:11:57;13.38;;;6.50;;
68989;SDS011;56046;47.270;11.368;2023-02-28T11:14:24;14.17;;;6.60;;
68989;SDS011;56046;47.270;11.368;2023-02-28T11:16:50;12.20;;;6.75;;
68989;SDS011;56046;47.270;11.368;2023-02-28T11:19:23;13.57;;;7.05;;
68989;SDS011;56046;47.270;11.368;2023-02-28T11:21:53;13.50;;;6.77;;
68989;SDS011;56046;47.270;11.368;2023-02-28T11:26:48;12.77;;;7.28;;
68989;SDS011;56046;47.270;11.368;2023-02-28T11:29:24;11.80;;;6.90;;
68989;SDS011;56046;47.270;11.368;2023-02-28T11:34:27;13.68;;;6.55;;
68989;SDS011;56046;47.270;11.368;2023-02-28T11:36:56;14.82;;;7.00;;
68989;SDS011;56046;47.270;11.368;2023-02-28T11:39:22;12.50;;;6.72;;
68989;SDS011;56046;47.270;11.368;2023-02-28T12:03:03;11.18;;;5.88;;
68989;SDS011;56046;47.270;11.368;2023-02-28T12:05:46;9.73;;;5.57;;
68989;SDS011;56046;47.270;11.368;2023-02-28T12:13:25;12.15;;;6.50;;
68989;SDS011;56046;47.270;11.368;2023-02-28T12:18:48;12.40;;;6.00;;
68989;SDS011;56046;47.270;11.368;2023-02-28T12:23:51;11.63;;;5.60;;
68989;SDS011;56046;47.270;11.368;2023-02-28T12:26:20;11.15;;;5.78;;
68989;SDS011;56046;47.270;11.368;2023-02-28T12:28:52;11.20;;;5.35;;
68989;SDS011;56046;47.270;11.368;2023-02-28T12:31:23;8.88;;;5.32;;
68989;SDS011;56046;47.270;11.368;2023-02-28T12:33:51;9.50;;;4.60;;
68989;SDS011;56046;47.270;11.368;2023-02-28T12:36:18;10.93;;;5.55;;
68989;SDS011;56046;47.270;11.368;2023-02-28T12:38:52;10.93;;;5.18;;
68989;SDS011;56046;47.270;11.368;2023-02-28T12:41:19;10.40;;;5.55;;
68989;SDS011;56046;47.270;11.368;2023-02-28T12:43:51;10.80;;;5.18;;
68989;SDS011;56046;47.270;11.368;2023-02-28T12:46:23;10.20;;;5.20;;
68989;SDS011;56046;47.270;11.368;2023-02-28T12:48:53;9.45;;;4.82;;
68989;SDS011;56046;47.270;11.368;2023-02-28T12:51:21;9.68;;;4.75;;
68989;SDS011;56046;47.270;11.368;2023-02-28T12:56:33;9.48;;;4.82;;
68989;SDS011;56046;47.270;11.368;2023-02-28T12:59:03;9.00;;;4.77;;
68989;SDS011;56046;47.270;11.368;2023-02-28T13:04:24;9.75;;;5.20;;
68989;SDS011;56046;47.270;11.368;2023-02-28T13:09:18;10.63;;;5.40;;
68989;SDS011;56046;47.270;11.368;2023-02-28T13:11:48;11.47;;;5.23;;
68989;SDS011;56046;47.270;11.368;2023-02-28T13:16:50;9.15;;;4.68;;
68989;SDS011;56046;47.270;11.368;2023-02-28T13:19:17;9.23;;;4.83;;
68989;SDS011;56046;47.270;11.368;2023-02-28T13:21:43;8.77;;;5.00;;
68989;SDS011;56046;47.270;11.368;2023-02-28T13:24:10;10.98;;;5.43;;
68989;SDS011;56046;47.270;11.368;2023-02-28T13:31:29;13.95;;;6.63;;
68989;SDS011;56046;47.270;11.368;2023-02-28T13:38:51;8.85;;;5.07;;
68989;SDS011;56046;47.270;11.368;2023-02-28T13:44:14;11.70;;;6.22;;
68989;SDS011;56046;47.270;11.368;2023-02-28T13:51:55;10.20;;;5.18;;
68989;SDS011;56046;47.270;11.368;2023-02-28T13:54:48;12.15;;;6.35;;
68989;SDS011;56046;47.270;11.368;2023-02-28T14:05:12;11.70;;;5.53;;
68989;SDS011;56046;47.270;11.368;2023-02-28T14:07:40;10.20;;;5.80;;
68989;SDS011;56046;47.270;11.368;2023-02-28T14:10:08;9.35;;;4.70;;
68989;SDS011;56046;47.270;11.368;2023-02-28T14:17:54;9.85;;;5.80;;
68989;SDS011;56046;47.270;11.368;2023-02-28T14:20:20;13.82;;;5.75;;
68989;SDS011;56046;47.270;11.368;2023-02-28T14:22:52;10.95;;;5.28;;
68989;SDS011;56046;47.270;11.368;2023-02-28T14:30:40;11.13;;;5.38;;
68989;SDS011;56046;47.270;11.368;2023-02-28T14:38:50;11.07;;;5.43;;
68989;SDS011;56046;47.270;11.368;2023-02-28T14:43:53;8.25;;;3.45;;
68989;SDS011;56046;47.270;11.368;2023-02-28T14:46:19;9.70;;;4.88;;
68989;SDS011;56046;47.270;11.368;2023-02-28T14:48:46;10.23;;;4.90;;
68989;SDS011;56046;47.270;11.368;2023-02-28T14:51:11;9.67;;;5.13;;
68989;SDS011;56046;47.270;11.368;2023-02-28T14:53:37;9.98;;;5.35;;
68989;SDS011;56046;47.270;11.368;2023-02-28T14:56:02;8.67;;;4.40;;
68989;SDS011;56046;47.270;11.368;2023-02-28T14:58:32;9.02;;;3.88;;
68989;SDS011;56046;47.270;11.368;2023-02-28T15:00:58;9.77;;;4.43;;
68989;SDS011;56046;47.270;11.368;2023-02-28T15:05:56;14.30;;;5.93;;
68989;SDS011;56046;47.270;11.368;2023-02-28T15:08:22;10.05;;;4.82;;
68989;SDS011;56046;47.270;11.368;2023-02-28T15:10:51;10.40;;;5.23;;
68989;SDS011;56046;47.270;11.368;2023-02-28T15:13:18;9.77;;;4.50;;
68989;SDS011;56046;47.270;11.368;2023-02-28T15:15:56;9.48;;;4.72;;
68989;SDS011;56046;47.270;11.368;2023-02-28T15:18:28;8.55;;;4.50;;
68989;SDS011;56046;47.270;11.368;2023-02-28T15:20:56;8.70;;;4.72;;
68989;SDS011;56046;47.270;11.368;2023-02-28T15:23:22;11.83;;;4.90;;
68989;SDS011;56046;47.270;11.368;2023-02-28T15:25:47;8.38;;;4.28;;
68989;SDS011;56046;47.270;11.368;2023-02-28T15:28:20;9.13;;;4.03;;
68989;SDS011;56046;47.270;11.368;2023-02-28T15:31:16;10.93;;;4.85;;
68989;SDS011;56046;47.270;11.368;2023-02-28T15:33:34;9.35;;;5.10;;
68989;SDS011;56046;47.270;11.368;2023-02-28T15:36:10;10.43;;;4.97;;
68989;SDS011;56046;47.270;11.368;2023-02-28T15:38:36;11.20;;;5.53;;
68989;SDS011;56046;47.270;11.368;2023-02-28T15:41:01;13.40;;;4.57;;
68989;SDS011;56046;47.270;11.368;2023-02-28T15:43:28;10.65;;;4.20;;
68989;SDS011;56046;47.270;11.368;2023-02-28T15:46:10;11.02;;;5.15;;
68989;SDS011;56046;47.270;11.368;2023-02-28T15:48:48;10.70;;;4.75;;
68989;SDS011;56046;47.270;11.368;2023-02-28T15:51:20;10.73;;;4.63;;
68989;SDS011;56046;47.270;11.368;2023-02-28T15:53:48;11.23;;;5.35;;
68989;SDS011;56046;47.270;11.368;2023-02-28T15:56:24;12.82;;;5.82;;
68989;SDS011;56046;47.270;11.368;2023-02-28T15:58:53;12.70;;;5.53;;
68989;SDS011;56046;47.270;11.368;2023-02-28T16:01:28;11.98;;;5.40;;
68989;SDS011;56046;47.270;11.368;2023-02-28T16:04:01;9.73;;;5.03;;
68989;SDS011;56046;47.270;11.368;2023-02-28T16:08:52;13.10;;;6.20;;
68989;SDS011;56046;47.270;11.368;2023-02-28T16:11:18;12.48;;;5.63;;
68989;SDS011;56046;47.270;11.368;2023-02-28T16:13:44;9.97;;;5.03;;
68989;SDS011;56046;47.270;11.368;2023-02-28T16:16:14;17.07;;;7.00;;
68989;SDS011;56046;47.270;11.368;2023-02-28T16:18:40;11.45;;;5.63;;
68989;SDS011;56046;47.270;11.368;2023-02-28T16:21:05;13.77;;;6.30;;
68989;SDS011;56046;47.270;11.368;2023-02-28T16:23:30;14.17;;;5.67;;
68989;SDS011;56046;47.270;11.368;2023-02-28T16:25:55;12.83;;;6.60;;
68989;SDS011;56046;47.270;11.368;2023-02-28T16:28:25;13.80;;;6.80;;
68989;SDS011;56046;47.270;11.368;2023-02-28T16:30:56;15.82;;;6.60;;
68989;SDS011;56046;47.270;11.368;2023-02-28T16:33:21;15.88;;;7.13;;
68989;SDS011;56046;47.270;11.368;2023-02-28T16:35:47;14.73;;;7.00;;
68989;SDS011;56046;47.270;11.368;2023-02-28T16:38:12;15.63;;;7.30;;
68989;SDS011;56046;47.270;11.368;2023-02-28T16:40:37;16.53;;;6.87;;
68989;SDS011;56046;47.270;11.368;2023-02-28T16:43:14;12.63;;;6.60;;
68989;SDS011;56046;47.270;11.368;2023-02-28T16:45:41;13.02;;;6.50;;
68989;SDS011;56046;47.270;11.368;2023-02-28T16:48:08;12.95;;;7.40;;
68989;SDS011;56046;47.270;11.368;2023-02-28T16:50:36;12.40;;;5.43;;
68989;SDS011;56046;47.270;11.368;2023-02-28T16:53:01;16.75;;;7.22;;
68989;SDS011;56046;47.270;11.368;2023-02-28T16:55:27;13.97;;;6.97;;
68989;SDS011;56046;47.270;11.368;2023-02-28T16:57:53;13.73;;;7.10;;
68989;SDS011;56046;47.270;11.368;2023-02-28T17:00:19;15.40;;;6.78;;
68989;SDS011;56046;47.270;11.368;2023-02-28T17:02:45;15.83;;;7.17;;
68989;SDS011;56046;47.270;11.368;2023-02-28T17:05:11;19.55;;;8.27;;
68989;SDS011;56046;47.270;11.368;2023-02-28T17:07:37;15.32;;;7.13;;
68989;SDS011;56046;47.270;11.368;2023-02-28T17:10:08;16.13;;;7.20;;
68989;SDS011;56046;47.270;11.368;2023-02-28T17:12:36;17.67;;;8.07;;
68989;SDS011;56046;47.270;11.368;2023-02-28T17:15:01;19.20;;;8.03;;
68989;SDS011;56046;47.270;11.368;2023-02-28T17:17:27;15.73;;;7.67;;